EWG3HN EDDH-LKPR
Flight info
| Callsign | EWG3HN |
|---|---|
| Flight time | 0h 52m |
| Altitude | 33000 |
| Route | RAMAR6G/33 RAMAR Z998 OSKAN M748 HDO DCT GOLOP |
| Aircraft | A320/M-SDE3FGHIRWY/LB1 |
Departure
| Time | 2026-04-26 13:38 |
|---|---|
| Airport | Hamburg Helmut Schmidt Airport (EDDH) |
Arrival
| Time | 2026-04-26 14:30 |
|---|---|
| Airport | Václav Havel Airport Prague (LKPR) |
| Time | Latitude | Longitude | Altitude | Speed | Heading |
|---|---|---|---|---|---|
| 2026-04-26 13:01 | 53.63294 | 10.00358 | 51 ft | 0 kts | 87° |
| 2026-04-26 13:28 | 53.63294 | 10.00348 | 51 ft | 4 kts | 87° |
| 2026-04-26 13:29 | 53.63293 | 10.00303 | 51 ft | 4 kts | 87° |
| 2026-04-26 13:29 | 53.63292 | 10.00272 | 51 ft | 4 kts | 87° |
| 2026-04-26 13:29 | 53.63290 | 10.00219 | 51 ft | 2 kts | 87° |
| 2026-04-26 13:29 | 53.63293 | 10.00182 | 49 ft | 4 kts | 139° |
| 2026-04-26 13:30 | 53.63314 | 10.00170 | 45 ft | 4 kts | 176° |
| 2026-04-26 13:30 | 53.63319 | 10.00169 | 48 ft | 0 kts | 176° |
| 2026-04-26 13:35 | 53.63307 | 10.00170 | 44 ft | 4 kts | 176° |
| 2026-04-26 13:35 | 53.63267 | 10.00175 | 51 ft | 11 kts | 176° |
| 2026-04-26 13:35 | 53.63173 | 10.00186 | 49 ft | 13 kts | 176° |
| 2026-04-26 13:36 | 53.63087 | 10.00192 | 49 ft | 11 kts | 188° |
| 2026-04-26 13:36 | 53.63023 | 10.00133 | 51 ft | 10 kts | 212° |
| 2026-04-26 13:36 | 53.62971 | 10.00078 | 49 ft | 8 kts | 212° |
| 2026-04-26 13:36 | 53.62931 | 10.00023 | 50 ft | 7 kts | 235° |
| 2026-04-26 13:37 | 53.62902 | 9.99930 | 49 ft | 9 kts | 243° |
| 2026-04-26 13:37 | 53.62872 | 9.99831 | 48 ft | 10 kts | 244° |
| 2026-04-26 13:37 | 53.62866 | 9.99743 | 49 ft | 7 kts | 316° |
| 2026-04-26 13:37 | 53.62905 | 9.99710 | 50 ft | 9 kts | 334° |
| 2026-04-26 13:38 | 53.63165 | 9.99486 | 50 ft | 78 kts | 333° |
| 2026-04-26 13:38 | 53.63829 | 9.98914 | 48 ft | 134 kts | 333° |
| 2026-04-26 13:38 | 53.64785 | 9.98081 | 165 ft | 167 kts | 332° |
| 2026-04-26 13:38 | 53.65806 | 9.97200 | 905 ft | 164 kts | 332° |
| 2026-04-26 13:39 | 53.66828 | 9.96327 | 1661 ft | 165 kts | 332° |
| 2026-04-26 13:39 | 53.67854 | 9.95452 | 2334 ft | 166 kts | 332° |
| 2026-04-26 13:39 | 53.68942 | 9.94737 | 2970 ft | 170 kts | 350° |
| 2026-04-26 13:39 | 53.70147 | 9.94673 | 3452 ft | 183 kts | 359° |
| 2026-04-26 13:40 | 53.71497 | 9.94688 | 3732 ft | 204 kts | 359° |
| 2026-04-26 13:40 | 53.72952 | 9.95022 | 4095 ft | 220 kts | 25° |
| 2026-04-26 13:40 | 53.74141 | 9.96753 | 4496 ft | 241 kts | 57° |
| 2026-04-26 13:40 | 53.74830 | 9.99484 | 4915 ft | 262 kts | 69° |
| 2026-04-26 13:41 | 53.75553 | 10.02367 | 5697 ft | 269 kts | 64° |
| 2026-04-26 13:41 | 53.76383 | 10.05224 | 6574 ft | 273 kts | 62° |
| 2026-04-26 13:41 | 53.77258 | 10.08106 | 7407 ft | 277 kts | 60° |
| 2026-04-26 13:41 | 53.78146 | 10.11027 | 8231 ft | 281 kts | 60° |
| 2026-04-26 13:42 | 53.79032 | 10.14003 | 9052 ft | 286 kts | 63° |
| 2026-04-26 13:42 | 53.79521 | 10.17310 | 9849 ft | 297 kts | 85° |
| 2026-04-26 13:42 | 53.79165 | 10.20745 | 10556 ft | 308 kts | 112° |
| 2026-04-26 13:42 | 53.78012 | 10.23891 | 11012 ft | 326 kts | 125° |
| 2026-04-26 13:43 | 53.76626 | 10.27102 | 11250 ft | 349 kts | 126° |
| 2026-04-26 13:43 | 53.75147 | 10.30440 | 11784 ft | 359 kts | 126° |
| 2026-04-26 13:43 | 53.73615 | 10.33879 | 12470 ft | 364 kts | 127° |
| 2026-04-26 13:43 | 53.72109 | 10.37271 | 13162 ft | 368 kts | 127° |
| 2026-04-26 13:44 | 53.70570 | 10.40754 | 13859 ft | 372 kts | 127° |
| 2026-04-26 13:44 | 53.69015 | 10.44284 | 14498 ft | 377 kts | 127° |
| 2026-04-26 13:44 | 53.67448 | 10.47849 | 15092 ft | 381 kts | 126° |
| 2026-04-26 13:44 | 53.65862 | 10.51457 | 15700 ft | 384 kts | 127° |
| 2026-04-26 13:45 | 53.64262 | 10.55095 | 16301 ft | 388 kts | 127° |
| 2026-04-26 13:45 | 53.62643 | 10.58764 | 16898 ft | 392 kts | 127° |
| 2026-04-26 13:45 | 53.61006 | 10.62463 | 17489 ft | 396 kts | 127° |
| 2026-04-26 13:45 | 53.59351 | 10.66193 | 18077 ft | 400 kts | 127° |
| 2026-04-26 13:46 | 53.57676 | 10.69961 | 18658 ft | 403 kts | 128° |
| 2026-04-26 13:46 | 53.55990 | 10.73750 | 19161 ft | 406 kts | 128° |
| 2026-04-26 13:46 | 53.54290 | 10.77573 | 19676 ft | 409 kts | 128° |
| 2026-04-26 13:46 | 53.52581 | 10.81412 | 20196 ft | 412 kts | 128° |
| 2026-04-26 13:47 | 53.50852 | 10.85283 | 20697 ft | 415 kts | 128° |
| 2026-04-26 13:47 | 53.49243 | 10.88883 | 21158 ft | 417 kts | 128° |
| 2026-04-26 13:47 | 53.47487 | 10.92792 | 21661 ft | 420 kts | 128° |
| 2026-04-26 13:47 | 53.45724 | 10.96713 | 22114 ft | 423 kts | 128° |
| 2026-04-26 13:48 | 53.43942 | 11.00675 | 22586 ft | 426 kts | 128° |
| 2026-04-26 13:48 | 53.42151 | 11.04652 | 23056 ft | 429 kts | 128° |
| 2026-04-26 13:48 | 53.40349 | 11.08651 | 23522 ft | 432 kts | 128° |
| 2026-04-26 13:48 | 53.38530 | 11.12678 | 23963 ft | 435 kts | 128° |
| 2026-04-26 13:49 | 53.36703 | 11.16726 | 24329 ft | 437 kts | 128° |
| 2026-04-26 13:49 | 53.34861 | 11.20807 | 24710 ft | 440 kts | 128° |
| 2026-04-26 13:49 | 53.33014 | 11.24894 | 25089 ft | 442 kts | 128° |
| 2026-04-26 13:49 | 53.31150 | 11.29004 | 25451 ft | 445 kts | 128° |
| 2026-04-26 13:50 | 53.29276 | 11.33129 | 25800 ft | 447 kts | 128° |
| 2026-04-26 13:50 | 53.27358 | 11.37242 | 26145 ft | 450 kts | 132° |
| 2026-04-26 13:50 | 53.25148 | 11.40938 | 26446 ft | 451 kts | 142° |
| 2026-04-26 13:50 | 53.22745 | 11.44209 | 26790 ft | 453 kts | 143° |
| 2026-04-26 13:51 | 53.20293 | 11.47523 | 27121 ft | 455 kts | 143° |
| 2026-04-26 13:51 | 53.17827 | 11.50857 | 27432 ft | 457 kts | 143° |
| 2026-04-26 13:51 | 53.15352 | 11.54215 | 27802 ft | 459 kts | 143° |
| 2026-04-26 13:51 | 53.12878 | 11.57583 | 28159 ft | 461 kts | 143° |
| 2026-04-26 13:52 | 53.10391 | 11.60964 | 28503 ft | 463 kts | 143° |
| 2026-04-26 13:52 | 53.07891 | 11.64346 | 28837 ft | 465 kts | 143° |
| 2026-04-26 13:52 | 53.05368 | 11.67749 | 29182 ft | 467 kts | 143° |
| 2026-04-26 13:52 | 53.02838 | 11.71155 | 29514 ft | 469 kts | 143° |
| 2026-04-26 13:53 | 53.00290 | 11.74580 | 29805 ft | 472 kts | 143° |
| 2026-04-26 13:53 | 52.97734 | 11.78014 | 30054 ft | 476 kts | 144° |
| 2026-04-26 13:53 | 52.96025 | 11.80302 | 30246 ft | 477 kts | 144° |
| 2026-04-26 13:53 | 52.93434 | 11.83768 | 30499 ft | 479 kts | 144° |
| 2026-04-26 13:54 | 52.90835 | 11.87243 | 30747 ft | 481 kts | 144° |
| 2026-04-26 13:54 | 52.88230 | 11.90727 | 30998 ft | 482 kts | 144° |
| 2026-04-26 13:54 | 52.85614 | 11.94222 | 31239 ft | 484 kts | 144° |
| 2026-04-26 13:55 | 52.80366 | 12.01209 | 31856 ft | 483 kts | 144° |
| 2026-04-26 13:55 | 52.78634 | 12.03507 | 32073 ft | 483 kts | 144° |
| 2026-04-26 13:55 | 52.72527 | 12.11580 | 32913 ft | 480 kts | 144° |
| 2026-04-26 13:56 | 52.69919 | 12.15014 | 33251 ft | 479 kts | 145° |
| 2026-04-26 13:56 | 52.67311 | 12.18450 | 33513 ft | 480 kts | 145° |
| 2026-04-26 13:56 | 52.64710 | 12.21876 | 33812 ft | 479 kts | 145° |
| 2026-04-26 13:56 | 52.62106 | 12.25300 | 34140 ft | 479 kts | 145° |
| 2026-04-26 13:57 | 52.59500 | 12.28713 | 34479 ft | 477 kts | 145° |
| 2026-04-26 13:57 | 52.56915 | 12.32096 | 34828 ft | 474 kts | 145° |
| 2026-04-26 13:57 | 52.54338 | 12.35470 | 35110 ft | 473 kts | 145° |
| 2026-04-26 13:57 | 52.51762 | 12.38833 | 35281 ft | 473 kts | 145° |
| 2026-04-26 13:58 | 52.49195 | 12.42175 | 35318 ft | 469 kts | 145° |
| 2026-04-26 13:58 | 52.44097 | 12.48801 | 35315 ft | 466 kts | 145° |
| 2026-04-26 13:59 | 52.39045 | 12.55352 | 35314 ft | 468 kts | 145° |
| 2026-04-26 13:59 | 52.33938 | 12.61963 | 35315 ft | 468 kts | 145° |
| 2026-04-26 14:00 | 52.23738 | 12.75084 | 35322 ft | 466 kts | 146° |
| 2026-04-26 14:01 | 52.18637 | 12.81612 | 35326 ft | 466 kts | 145° |
| 2026-04-26 14:01 | 52.13542 | 12.88131 | 35325 ft | 466 kts | 146° |
| 2026-04-26 14:02 | 52.08430 | 12.94634 | 35318 ft | 467 kts | 146° |
| 2026-04-26 14:02 | 52.03312 | 13.01128 | 35303 ft | 467 kts | 146° |
| 2026-04-26 14:03 | 51.98197 | 13.07610 | 35322 ft | 466 kts | 146° |
| 2026-04-26 14:03 | 51.93083 | 13.14063 | 35316 ft | 465 kts | 146° |
| 2026-04-26 14:04 | 51.87976 | 13.20488 | 35314 ft | 465 kts | 146° |
| 2026-04-26 14:04 | 51.82870 | 13.26897 | 35313 ft | 465 kts | 146° |
| 2026-04-26 14:05 | 51.77755 | 13.33302 | 35297 ft | 466 kts | 146° |
| 2026-04-26 14:05 | 51.72629 | 13.39696 | 35293 ft | 465 kts | 146° |
| 2026-04-26 14:06 | 51.67508 | 13.46068 | 35273 ft | 465 kts | 146° |
| 2026-04-26 14:06 | 51.64948 | 13.49245 | 35028 ft | 464 kts | 146° |
| 2026-04-26 14:06 | 51.62395 | 13.52409 | 34619 ft | 462 kts | 146° |
| 2026-04-26 14:06 | 51.59853 | 13.55553 | 33994 ft | 460 kts | 146° |
| 2026-04-26 14:07 | 51.57321 | 13.58678 | 33420 ft | 457 kts | 146° |
| 2026-04-26 14:07 | 51.54802 | 13.61783 | 32864 ft | 455 kts | 146° |
| 2026-04-26 14:07 | 51.52296 | 13.64870 | 32300 ft | 453 kts | 146° |
| 2026-04-26 14:07 | 51.49803 | 13.67939 | 31750 ft | 451 kts | 146° |
| 2026-04-26 14:08 | 51.47316 | 13.70996 | 31175 ft | 449 kts | 146° |
| 2026-04-26 14:08 | 51.44840 | 13.74026 | 30659 ft | 447 kts | 146° |
| 2026-04-26 14:08 | 51.42405 | 13.77002 | 30064 ft | 445 kts | 146° |
| 2026-04-26 14:08 | 51.39921 | 13.80038 | 29535 ft | 441 kts | 146° |
| 2026-04-26 14:09 | 51.37522 | 13.82969 | 29010 ft | 438 kts | 146° |
| 2026-04-26 14:09 | 51.35117 | 13.85912 | 28503 ft | 434 kts | 145° |
| 2026-04-26 14:09 | 51.32724 | 13.88835 | 27998 ft | 430 kts | 145° |
| 2026-04-26 14:09 | 51.30358 | 13.91717 | 27516 ft | 426 kts | 145° |
| 2026-04-26 14:10 | 51.28007 | 13.94573 | 27031 ft | 423 kts | 145° |
| 2026-04-26 14:10 | 51.25677 | 13.97400 | 26571 ft | 419 kts | 145° |
| 2026-04-26 14:10 | 51.23361 | 14.00203 | 26106 ft | 416 kts | 144° |
| 2026-04-26 14:10 | 51.21063 | 14.02982 | 25620 ft | 414 kts | 144° |
| 2026-04-26 14:11 | 51.16498 | 14.08499 | 24649 ft | 410 kts | 144° |
| 2026-04-26 14:11 | 51.14229 | 14.11236 | 24157 ft | 408 kts | 144° |
| 2026-04-26 14:11 | 51.11965 | 14.13964 | 23599 ft | 408 kts | 144° |
| 2026-04-26 14:12 | 51.09705 | 14.16679 | 23086 ft | 406 kts | 144° |
| 2026-04-26 14:12 | 51.07457 | 14.19379 | 22569 ft | 404 kts | 144° |
| 2026-04-26 14:12 | 51.05217 | 14.22064 | 22070 ft | 402 kts | 144° |
| 2026-04-26 14:12 | 51.02987 | 14.24734 | 21574 ft | 401 kts | 143° |
| 2026-04-26 14:13 | 50.98536 | 14.29921 | 20729 ft | 394 kts | 151° |
| 2026-04-26 14:13 | 50.96027 | 14.31593 | 20556 ft | 384 kts | 167° |
| 2026-04-26 14:13 | 50.93445 | 14.32656 | 20191 ft | 382 kts | 168° |
| 2026-04-26 14:14 | 50.90872 | 14.33671 | 19801 ft | 380 kts | 169° |
| 2026-04-26 14:14 | 50.88346 | 14.34645 | 19444 ft | 377 kts | 169° |
| 2026-04-26 14:14 | 50.85806 | 14.35617 | 19087 ft | 375 kts | 169° |
| 2026-04-26 14:14 | 50.83240 | 14.36603 | 18730 ft | 374 kts | 169° |
| 2026-04-26 14:15 | 50.80752 | 14.37564 | 18341 ft | 372 kts | 168° |
| 2026-04-26 14:15 | 50.78242 | 14.38535 | 17942 ft | 370 kts | 168° |
| 2026-04-26 14:15 | 50.75745 | 14.39503 | 17550 ft | 368 kts | 168° |
| 2026-04-26 14:15 | 50.73267 | 14.40463 | 17154 ft | 366 kts | 168° |
| 2026-04-26 14:16 | 50.70800 | 14.41419 | 16772 ft | 364 kts | 168° |
| 2026-04-26 14:16 | 50.68349 | 14.42368 | 16394 ft | 362 kts | 168° |
| 2026-04-26 14:16 | 50.65907 | 14.43310 | 15999 ft | 361 kts | 168° |
| 2026-04-26 14:16 | 50.63479 | 14.44247 | 15628 ft | 358 kts | 168° |
| 2026-04-26 14:17 | 50.61057 | 14.45177 | 15266 ft | 357 kts | 168° |
| 2026-04-26 14:17 | 50.58654 | 14.46097 | 14889 ft | 355 kts | 168° |
| 2026-04-26 14:17 | 50.56265 | 14.47011 | 14528 ft | 353 kts | 168° |
| 2026-04-26 14:17 | 50.53885 | 14.47924 | 14174 ft | 351 kts | 167° |
| 2026-04-26 14:18 | 50.51520 | 14.48831 | 13788 ft | 349 kts | 167° |
| 2026-04-26 14:18 | 50.49164 | 14.49733 | 13391 ft | 347 kts | 168° |
| 2026-04-26 14:18 | 50.46823 | 14.50627 | 13008 ft | 346 kts | 168° |
| 2026-04-26 14:18 | 50.44490 | 14.51517 | 12623 ft | 344 kts | 167° |
| 2026-04-26 14:19 | 50.42171 | 14.52404 | 12220 ft | 342 kts | 167° |
| 2026-04-26 14:19 | 50.39866 | 14.53286 | 11841 ft | 340 kts | 167° |
| 2026-04-26 14:19 | 50.37601 | 14.54153 | 11473 ft | 338 kts | 167° |
| 2026-04-26 14:19 | 50.35324 | 14.55022 | 11106 ft | 336 kts | 167° |
| 2026-04-26 14:20 | 50.33069 | 14.55881 | 10845 ft | 331 kts | 167° |
| 2026-04-26 14:20 | 50.30834 | 14.56733 | 10588 ft | 319 kts | 168° |
| 2026-04-26 14:20 | 50.28734 | 14.57533 | 10348 ft | 312 kts | 168° |
| 2026-04-26 14:20 | 50.26606 | 14.58340 | 10020 ft | 309 kts | 167° |
| 2026-04-26 14:21 | 50.24520 | 14.59130 | 9624 ft | 308 kts | 167° |
| 2026-04-26 14:21 | 50.22471 | 14.59904 | 9234 ft | 306 kts | 167° |
| 2026-04-26 14:21 | 50.20403 | 14.60684 | 8838 ft | 305 kts | 167° |
| 2026-04-26 14:21 | 50.18343 | 14.61461 | 8447 ft | 304 kts | 167° |
| 2026-04-26 14:22 | 50.16296 | 14.62228 | 8062 ft | 302 kts | 167° |
| 2026-04-26 14:22 | 50.14261 | 14.62991 | 7679 ft | 299 kts | 167° |
| 2026-04-26 14:22 | 50.12263 | 14.63744 | 7301 ft | 289 kts | 167° |
| 2026-04-26 14:22 | 50.10351 | 14.64466 | 6927 ft | 277 kts | 166° |
| 2026-04-26 14:23 | 50.08504 | 14.65163 | 6439 ft | 270 kts | 166° |
| 2026-04-26 14:23 | 50.06696 | 14.65846 | 5910 ft | 265 kts | 166° |
| 2026-04-26 14:23 | 50.04919 | 14.66514 | 5403 ft | 260 kts | 166° |
| 2026-04-26 14:23 | 50.03196 | 14.67044 | 5131 ft | 246 kts | 180° |
| 2026-04-26 14:24 | 50.01597 | 14.66458 | 4877 ft | 231 kts | 212° |
| 2026-04-26 14:24 | 50.00354 | 14.64976 | 4618 ft | 222 kts | 224° |
| 2026-04-26 14:24 | 49.99211 | 14.63363 | 4366 ft | 222 kts | 225° |
| 2026-04-26 14:24 | 49.98092 | 14.61702 | 4115 ft | 222 kts | 231° |
| 2026-04-26 14:25 | 49.97448 | 14.59634 | 4000 ft | 209 kts | 267° |
| 2026-04-26 14:25 | 49.97573 | 14.57427 | 4014 ft | 205 kts | 286° |
| 2026-04-26 14:25 | 49.97948 | 14.55288 | 3783 ft | 205 kts | 290° |
| 2026-04-26 14:25 | 49.98367 | 14.53185 | 3569 ft | 202 kts | 291° |
| 2026-04-26 14:26 | 49.98769 | 14.51128 | 3498 ft | 194 kts | 290° |
| 2026-04-26 14:26 | 49.99152 | 14.49193 | 3528 ft | 181 kts | 290° |
| 2026-04-26 14:26 | 49.99687 | 14.47491 | 3512 ft | 172 kts | 308° |
| 2026-04-26 14:26 | 50.00389 | 14.46010 | 3510 ft | 169 kts | 309° |
| 2026-04-26 14:27 | 50.01094 | 14.44552 | 3515 ft | 169 kts | 309° |
| 2026-04-26 14:27 | 50.01807 | 14.43085 | 3518 ft | 171 kts | 309° |
| 2026-04-26 14:27 | 50.02525 | 14.41608 | 3397 ft | 171 kts | 309° |
| 2026-04-26 14:27 | 50.03236 | 14.40146 | 3193 ft | 169 kts | 310° |
| 2026-04-26 14:28 | 50.03942 | 14.38694 | 2976 ft | 168 kts | 309° |
| 2026-04-26 14:28 | 50.04617 | 14.37302 | 2753 ft | 157 kts | 309° |
| 2026-04-26 14:28 | 50.05247 | 14.36004 | 2565 ft | 145 kts | 309° |
| 2026-04-26 14:28 | 50.05833 | 14.34785 | 2361 ft | 138 kts | 310° |
| 2026-04-26 14:29 | 50.06421 | 14.33589 | 2186 ft | 139 kts | 311° |
| 2026-04-26 14:29 | 50.07018 | 14.32371 | 1983 ft | 142 kts | 310° |
| 2026-04-26 14:29 | 50.07607 | 14.31151 | 1790 ft | 140 kts | 310° |
| 2026-04-26 14:29 | 50.08177 | 14.29971 | 1556 ft | 134 kts | 310° |
| 2026-04-26 14:30 | 50.08727 | 14.28827 | 1385 ft | 131 kts | 309° |
| 2026-04-26 14:30 | 50.09276 | 14.27684 | 1246 ft | 128 kts | 310° |
| 2026-04-26 14:30 | 50.09723 | 14.26767 | 1211 ft | 82 kts | 307° |
| 2026-04-26 14:30 | 50.09972 | 14.26253 | 1193 ft | 46 kts | 307° |
| 2026-04-26 14:31 | 50.10141 | 14.25905 | 1186 ft | 20 kts | 306° |
| 2026-04-26 14:31 | 50.10236 | 14.25739 | 1185 ft | 20 kts | 323° |
| 2026-04-26 14:31 | 50.10365 | 14.25659 | 1184 ft | 18 kts | 352° |
| 2026-04-26 14:31 | 50.10431 | 14.25660 | 1184 ft | 6 kts | 6° |
| 2026-04-26 14:32 | 50.10466 | 14.25672 | 1184 ft | 5 kts | 21° |
| 2026-04-26 14:32 | 50.10491 | 14.25772 | 1184 ft | 11 kts | 79° |
| 2026-04-26 14:32 | 50.10504 | 14.25875 | 1186 ft | 8 kts | 79° |
| 2026-04-26 14:32 | 50.10514 | 14.25946 | 1187 ft | 6 kts | 81° |
| 2026-04-26 14:33 | 50.10521 | 14.26007 | 1189 ft | 9 kts | 79° |
| 2026-04-26 14:33 | 50.10532 | 14.26095 | 1188 ft | 8 kts | 78° |
| 2026-04-26 14:33 | 50.10540 | 14.26187 | 1187 ft | 10 kts | 91° |
| 2026-04-26 14:33 | 50.10515 | 14.26290 | 1187 ft | 10 kts | 122° |
| 2026-04-26 14:34 | 50.10484 | 14.26364 | 1189 ft | 7 kts | 124° |
| 2026-04-26 14:34 | 50.10449 | 14.26441 | 1191 ft | 9 kts | 125° |
| 2026-04-26 14:34 | 50.10425 | 14.26491 | 1191 ft | 7 kts | 133° |
| 2026-04-26 14:34 | 50.10405 | 14.26540 | 1192 ft | 4 kts | 83° |
| 2026-04-26 14:35 | 50.10423 | 14.26566 | 1191 ft | 3 kts | 32° |
| 2026-04-26 14:35 | 50.10434 | 14.26576 | 1191 ft | 0 kts | 31° |
| 2026-04-26 14:35 | 50.10436 | 14.26578 | 1191 ft | 1 kts | 31° |
| 2026-04-26 14:35 | 50.10437 | 14.26580 | 1191 ft | 0 kts | 31° |